sensor_id;sensor_type;location;lat;lon;timestamp;P1;durP1;ratioP1;P2;durP2;ratioP2
18042;SDS011;9146;48.074;11.968;2023-05-10T00:00:45;4.10;;;2.37;;
18042;SDS011;9146;48.074;11.968;2023-05-10T00:03:12;2.33;;;2.20;;
18042;SDS011;9146;48.074;11.968;2023-05-10T00:05:39;3.63;;;2.63;;
18042;SDS011;9146;48.074;11.968;2023-05-10T00:08:06;2.77;;;2.40;;
18042;SDS011;9146;48.074;11.968;2023-05-10T00:10:33;2.77;;;2.50;;
18042;SDS011;9146;48.074;11.968;2023-05-10T00:13:01;2.33;;;2.23;;
18042;SDS011;9146;48.074;11.968;2023-05-10T00:15:28;3.10;;;2.87;;
18042;SDS011;9146;48.074;11.968;2023-05-10T00:17:55;2.30;;;2.10;;
18042;SDS011;9146;48.074;11.968;2023-05-10T00:20:22;2.87;;;2.40;;
18042;SDS011;9146;48.074;11.968;2023-05-10T00:22:49;2.67;;;2.00;;
18042;SDS011;9146;48.074;11.968;2023-05-10T00:25:16;2.40;;;2.20;;
18042;SDS011;9146;48.074;11.968;2023-05-10T00:27:43;2.07;;;1.97;;
18042;SDS011;9146;48.074;11.968;2023-05-10T00:30:12;2.40;;;2.20;;
18042;SDS011;9146;48.074;11.968;2023-05-10T00:32:39;2.60;;;1.90;;
18042;SDS011;9146;48.074;11.968;2023-05-10T00:35:06;2.03;;;1.93;;
18042;SDS011;9146;48.074;11.968;2023-05-10T00:37:33;2.60;;;2.40;;
18042;SDS011;9146;48.074;11.968;2023-05-10T00:40:00;2.10;;;2.00;;
18042;SDS011;9146;48.074;11.968;2023-05-10T00:42:27;7.07;;;2.30;;
18042;SDS011;9146;48.074;11.968;2023-05-10T00:44:54;2.30;;;2.10;;
18042;SDS011;9146;48.074;11.968;2023-05-10T00:47:22;2.13;;;2.03;;
18042;SDS011;9146;48.074;11.968;2023-05-10T00:49:49;2.30;;;2.10;;
18042;SDS011;9146;48.074;11.968;2023-05-10T00:52:17;2.50;;;2.30;;
18042;SDS011;9146;48.074;11.968;2023-05-10T00:54:44;3.57;;;2.50;;
18042;SDS011;9146;48.074;11.968;2023-05-10T00:57:11;2.50;;;2.40;;
18042;SDS011;9146;48.074;11.968;2023-05-10T00:59:38;2.67;;;2.47;;
18042;SDS011;9146;48.074;11.968;2023-05-10T01:02:05;3.53;;;2.47;;
18042;SDS011;9146;48.074;11.968;2023-05-10T01:04:34;1.73;;;1.63;;
18042;SDS011;9146;48.074;11.968;2023-05-10T01:07:02;3.87;;;1.77;;
18042;SDS011;9146;48.074;11.968;2023-05-10T01:09:29;2.20;;;2.10;;
18042;SDS011;9146;48.074;11.968;2023-05-10T01:11:56;2.20;;;2.00;;
18042;SDS011;9146;48.074;11.968;2023-05-10T01:14:23;1.93;;;1.83;;
18042;SDS011;9146;48.074;11.968;2023-05-10T01:16:51;1.83;;;1.73;;
18042;SDS011;9146;48.074;11.968;2023-05-10T01:19:21;1.90;;;1.80;;
18042;SDS011;9146;48.074;11.968;2023-05-10T01:21:54;2.23;;;2.13;;
18042;SDS011;9146;48.074;11.968;2023-05-10T01:24:46;4.07;;;2.17;;
18042;SDS011;9146;48.074;11.968;2023-05-10T01:33:36;2.00;;;1.90;;
18042;SDS011;9146;48.074;11.968;2023-05-10T01:36:08;2.37;;;2.17;;
18042;SDS011;9146;48.074;11.968;2023-05-10T01:38:42;2.30;;;1.97;;
18042;SDS011;9146;48.074;11.968;2023-05-10T01:41:17;2.07;;;1.97;;
18042;SDS011;9146;48.074;11.968;2023-05-10T01:43:53;2.57;;;2.33;;
18042;SDS011;9146;48.074;11.968;2023-05-10T01:46:24;2.03;;;1.93;;
18042;SDS011;9146;48.074;11.968;2023-05-10T01:48:57;1.80;;;1.70;;
18042;SDS011;9146;48.074;11.968;2023-05-10T01:51:27;2.20;;;2.00;;
18042;SDS011;9146;48.074;11.968;2023-05-10T01:54:00;1.70;;;1.60;;
18042;SDS011;9146;48.074;11.968;2023-05-10T01:56:30;1.87;;;1.77;;
18042;SDS011;9146;48.074;11.968;2023-05-10T01:58:59;2.10;;;2.00;;
18042;SDS011;9146;48.074;11.968;2023-05-10T02:01:30;1.70;;;1.60;;
18042;SDS011;9146;48.074;11.968;2023-05-10T02:04:01;2.30;;;2.10;;
18042;SDS011;9146;48.074;11.968;2023-05-10T02:06:28;3.23;;;1.50;;
18042;SDS011;9146;48.074;11.968;2023-05-10T02:08:58;1.93;;;1.83;;
18042;SDS011;9146;48.074;11.968;2023-05-10T02:11:28;1.60;;;1.50;;
18042;SDS011;9146;48.074;11.968;2023-05-10T02:13:56;2.33;;;2.23;;
18042;SDS011;9146;48.074;11.968;2023-05-10T02:16:26;1.80;;;1.70;;
18042;SDS011;9146;48.074;11.968;2023-05-10T02:18:55;1.80;;;1.70;;
18042;SDS011;9146;48.074;11.968;2023-05-10T02:21:26;1.70;;;1.60;;
18042;SDS011;9146;48.074;11.968;2023-05-10T02:23:55;3.13;;;1.97;;
18042;SDS011;9146;48.074;11.968;2023-05-10T02:26:24;1.90;;;1.70;;
18042;SDS011;9146;48.074;11.968;2023-05-10T02:28:53;3.67;;;1.90;;
18042;SDS011;9146;48.074;11.968;2023-05-10T02:31:20;1.57;;;1.47;;
18042;SDS011;9146;48.074;11.968;2023-05-10T02:33:48;1.57;;;1.47;;
18042;SDS011;9146;48.074;11.968;2023-05-10T02:36:16;1.57;;;1.50;;
18042;SDS011;9146;48.074;11.968;2023-05-10T02:38:45;1.63;;;1.53;;
18042;SDS011;9146;48.074;11.968;2023-05-10T02:41:13;1.17;;;1.17;;
18042;SDS011;9146;48.074;11.968;2023-05-10T02:43:40;1.77;;;1.60;;
18042;SDS011;9146;48.074;11.968;2023-05-10T02:46:08;1.70;;;1.60;;
18042;SDS011;9146;48.074;11.968;2023-05-10T02:48:34;2.20;;;1.63;;
18042;SDS011;9146;48.074;11.968;2023-05-10T02:51:03;2.10;;;1.70;;
18042;SDS011;9146;48.074;11.968;2023-05-10T02:53:33;1.70;;;1.60;;
18042;SDS011;9146;48.074;11.968;2023-05-10T02:56:12;1.60;;;1.50;;
18042;SDS011;9146;48.074;11.968;2023-05-10T02:58:46;1.70;;;1.60;;
18042;SDS011;9146;48.074;11.968;2023-05-10T03:01:12;1.73;;;1.63;;
18042;SDS011;9146;48.074;11.968;2023-05-10T03:03:40;1.70;;;1.40;;
18042;SDS011;9146;48.074;11.968;2023-05-10T03:06:07;1.67;;;1.37;;
18042;SDS011;9146;48.074;11.968;2023-05-10T03:08:34;1.50;;;1.40;;
18042;SDS011;9146;48.074;11.968;2023-05-10T03:11:09;1.33;;;1.23;;
18042;SDS011;9146;48.074;11.968;2023-05-10T03:13:53;1.60;;;1.50;;
18042;SDS011;9146;48.074;11.968;2023-05-10T03:16:29;1.93;;;1.83;;
18042;SDS011;9146;48.074;11.968;2023-05-10T03:19:04;1.80;;;1.70;;
18042;SDS011;9146;48.074;11.968;2023-05-10T03:21:38;1.10;;;1.10;;
18042;SDS011;9146;48.074;11.968;2023-05-10T03:24:11;1.70;;;1.60;;
18042;SDS011;9146;48.074;11.968;2023-05-10T03:26:41;1.80;;;1.70;;
18042;SDS011;9146;48.074;11.968;2023-05-10T03:29:10;1.70;;;1.60;;
18042;SDS011;9146;48.074;11.968;2023-05-10T03:31:39;1.90;;;1.80;;
18042;SDS011;9146;48.074;11.968;2023-05-10T03:34:06;1.50;;;1.40;;
18042;SDS011;9146;48.074;11.968;2023-05-10T03:36:33;1.40;;;1.40;;
18042;SDS011;9146;48.074;11.968;2023-05-10T03:39:00;1.20;;;1.20;;
18042;SDS011;9146;48.074;11.968;2023-05-10T03:41:27;1.87;;;1.73;;
18042;SDS011;9146;48.074;11.968;2023-05-10T03:43:55;2.70;;;1.70;;
18042;SDS011;9146;48.074;11.968;2023-05-10T03:46:23;1.90;;;1.60;;
18042;SDS011;9146;48.074;11.968;2023-05-10T03:48:50;2.23;;;1.60;;
18042;SDS011;9146;48.074;11.968;2023-05-10T03:51:17;1.60;;;1.50;;
18042;SDS011;9146;48.074;11.968;2023-05-10T03:53:44;2.80;;;1.80;;
18042;SDS011;9146;48.074;11.968;2023-05-10T03:56:11;1.60;;;1.50;;
18042;SDS011;9146;48.074;11.968;2023-05-10T03:58:38;1.37;;;1.27;;
18042;SDS011;9146;48.074;11.968;2023-05-10T04:01:06;1.50;;;1.40;;
18042;SDS011;9146;48.074;11.968;2023-05-10T04:03:33;1.40;;;1.30;;
18042;SDS011;9146;48.074;11.968;2023-05-10T04:06:01;1.10;;;1.10;;
18042;SDS011;9146;48.074;11.968;2023-05-10T04:08:28;1.83;;;1.50;;
18042;SDS011;9146;48.074;11.968;2023-05-10T04:11:04;1.90;;;1.60;;
18042;SDS011;9146;48.074;11.968;2023-05-10T04:13:31;2.70;;;1.40;;
18042;SDS011;9146;48.074;11.968;2023-05-10T04:15:58;1.53;;;1.40;;
18042;SDS011;9146;48.074;11.968;2023-05-10T04:18:26;1.40;;;1.30;;
18042;SDS011;9146;48.074;11.968;2023-05-10T04:20:53;1.50;;;1.43;;
18042;SDS011;9146;48.074;11.968;2023-05-10T04:23:20;3.73;;;1.67;;
18042;SDS011;9146;48.074;11.968;2023-05-10T04:25:47;1.37;;;1.37;;
18042;SDS011;9146;48.074;11.968;2023-05-10T04:28:14;1.37;;;1.37;;
18042;SDS011;9146;48.074;11.968;2023-05-10T04:30:41;1.50;;;1.40;;
18042;SDS011;9146;48.074;11.968;2023-05-10T04:33:08;1.60;;;1.50;;
18042;SDS011;9146;48.074;11.968;2023-05-10T04:35:36;1.93;;;1.20;;
18042;SDS011;9146;48.074;11.968;2023-05-10T04:38:04;4.50;;;1.17;;
18042;SDS011;9146;48.074;11.968;2023-05-10T04:40:31;1.30;;;1.20;;
18042;SDS011;9146;48.074;11.968;2023-05-10T04:42:59;2.20;;;1.33;;
18042;SDS011;9146;48.074;11.968;2023-05-10T04:45:26;1.10;;;1.10;;
18042;SDS011;9146;48.074;11.968;2023-05-10T04:47:52;1.40;;;1.30;;
18042;SDS011;9146;48.074;11.968;2023-05-10T04:50:19;1.27;;;1.20;;
18042;SDS011;9146;48.074;11.968;2023-05-10T04:52:47;1.80;;;1.40;;
18042;SDS011;9146;48.074;11.968;2023-05-10T04:55:14;1.17;;;1.17;;
18042;SDS011;9146;48.074;11.968;2023-05-10T04:57:41;1.37;;;1.37;;
18042;SDS011;9146;48.074;11.968;2023-05-10T05:00:10;1.70;;;1.60;;
18042;SDS011;9146;48.074;11.968;2023-05-10T05:02:37;1.53;;;1.43;;
18042;SDS011;9146;48.074;11.968;2023-05-10T05:05:05;1.47;;;1.37;;
18042;SDS011;9146;48.074;11.968;2023-05-10T05:07:32;1.27;;;1.20;;
18042;SDS011;9146;48.074;11.968;2023-05-10T05:12:57;1.87;;;1.23;;
18042;SDS011;9146;48.074;11.968;2023-05-10T05:15:25;2.23;;;1.37;;
18042;SDS011;9146;48.074;11.968;2023-05-10T05:17:52;1.53;;;1.43;;
18042;SDS011;9146;48.074;11.968;2023-05-10T05:20:19;1.50;;;1.40;;
18042;SDS011;9146;48.074;11.968;2023-05-10T05:22:46;1.10;;;1.10;;
18042;SDS011;9146;48.074;11.968;2023-05-10T05:25:13;1.00;;;1.00;;
18042;SDS011;9146;48.074;11.968;2023-05-10T05:27:40;4.40;;;1.40;;
18042;SDS011;9146;48.074;11.968;2023-05-10T05:30:10;1.40;;;1.30;;
18042;SDS011;9146;48.074;11.968;2023-05-10T05:32:37;1.47;;;1.40;;
18042;SDS011;9146;48.074;11.968;2023-05-10T05:35:04;1.90;;;1.33;;
18042;SDS011;9146;48.074;11.968;2023-05-10T05:37:32;2.30;;;1.40;;
18042;SDS011;9146;48.074;11.968;2023-05-10T05:39:58;1.43;;;1.33;;
18042;SDS011;9146;48.074;11.968;2023-05-10T05:42:26;2.30;;;1.30;;
18042;SDS011;9146;48.074;11.968;2023-05-10T05:44:53;1.40;;;1.03;;
18042;SDS011;9146;48.074;11.968;2023-05-10T05:47:21;1.50;;;1.23;;
18042;SDS011;9146;48.074;11.968;2023-05-10T05:49:48;1.73;;;1.27;;
18042;SDS011;9146;48.074;11.968;2023-05-10T05:52:15;1.30;;;1.20;;
18042;SDS011;9146;48.074;11.968;2023-05-10T05:54:42;0.90;;;0.90;;
18042;SDS011;9146;48.074;11.968;2023-05-10T05:57:09;1.63;;;1.00;;
18042;SDS011;9146;48.074;11.968;2023-05-10T05:59:36;1.30;;;1.20;;
18042;SDS011;9146;48.074;11.968;2023-05-10T06:02:06;1.00;;;1.00;;
18042;SDS011;9146;48.074;11.968;2023-05-10T06:04:35;1.50;;;0.97;;
18042;SDS011;9146;48.074;11.968;2023-05-10T06:07:02;0.80;;;0.80;;
18042;SDS011;9146;48.074;11.968;2023-05-10T06:09:29;1.17;;;1.00;;
18042;SDS011;9146;48.074;11.968;2023-05-10T06:11:56;3.23;;;0.97;;
18042;SDS011;9146;48.074;11.968;2023-05-10T06:14:22;1.00;;;1.00;;
18042;SDS011;9146;48.074;11.968;2023-05-10T06:16:49;0.93;;;0.93;;
18042;SDS011;9146;48.074;11.968;2023-05-10T06:19:16;1.03;;;1.03;;
18042;SDS011;9146;48.074;11.968;2023-05-10T06:21:44;1.43;;;1.33;;
18042;SDS011;9146;48.074;11.968;2023-05-10T06:24:12;1.50;;;1.40;;
18042;SDS011;9146;48.074;11.968;2023-05-10T06:26:38;1.30;;;1.20;;
18042;SDS011;9146;48.074;11.968;2023-05-10T06:29:05;1.80;;;1.40;;
18042;SDS011;9146;48.074;11.968;2023-05-10T06:31:32;1.83;;;1.40;;
18042;SDS011;9146;48.074;11.968;2023-05-10T06:33:59;1.93;;;1.83;;
18042;SDS011;9146;48.074;11.968;2023-05-10T06:36:26;1.97;;;1.60;;
18042;SDS011;9146;48.074;11.968;2023-05-10T06:38:54;2.93;;;1.30;;
18042;SDS011;9146;48.074;11.968;2023-05-10T06:41:21;2.33;;;2.13;;
18042;SDS011;9146;48.074;11.968;2023-05-10T06:43:48;3.70;;;2.40;;
18042;SDS011;9146;48.074;11.968;2023-05-10T06:46:15;2.53;;;2.03;;
18042;SDS011;9146;48.074;11.968;2023-05-10T06:48:42;2.73;;;2.20;;
18042;SDS011;9146;48.074;11.968;2023-05-10T06:51:09;2.10;;;1.90;;
18042;SDS011;9146;48.074;11.968;2023-05-10T06:53:36;3.17;;;2.17;;
18042;SDS011;9146;48.074;11.968;2023-05-10T06:56:05;5.30;;;2.30;;
18042;SDS011;9146;48.074;11.968;2023-05-10T06:58:32;3.40;;;2.40;;
18042;SDS011;9146;48.074;11.968;2023-05-10T07:01:02;4.83;;;2.50;;
18042;SDS011;9146;48.074;11.968;2023-05-10T07:03:29;4.10;;;2.53;;
18042;SDS011;9146;48.074;11.968;2023-05-10T07:05:59;5.17;;;2.97;;
18042;SDS011;9146;48.074;11.968;2023-05-10T07:08:28;5.43;;;3.00;;
18042;SDS011;9146;48.074;11.968;2023-05-10T07:10:59;4.10;;;2.97;;
18042;SDS011;9146;48.074;11.968;2023-05-10T07:13:28;3.57;;;3.20;;
18042;SDS011;9146;48.074;11.968;2023-05-10T07:15:55;3.53;;;2.83;;
18042;SDS011;9146;48.074;11.968;2023-05-10T07:18:22;6.10;;;3.40;;
18042;SDS011;9146;48.074;11.968;2023-05-10T07:20:49;2.93;;;2.73;;
18042;SDS011;9146;48.074;11.968;2023-05-10T07:23:16;3.23;;;2.93;;
18042;SDS011;9146;48.074;11.968;2023-05-10T07:25:44;3.60;;;2.93;;
18042;SDS011;9146;48.074;11.968;2023-05-10T07:28:11;4.87;;;2.63;;
18042;SDS011;9146;48.074;11.968;2023-05-10T07:30:40;2.83;;;2.63;;
18042;SDS011;9146;48.074;11.968;2023-05-10T07:33:07;4.10;;;2.57;;
18042;SDS011;9146;48.074;11.968;2023-05-10T07:35:34;2.70;;;2.50;;
18042;SDS011;9146;48.074;11.968;2023-05-10T07:38:01;2.40;;;2.20;;
18042;SDS011;9146;48.074;11.968;2023-05-10T07:40:28;3.20;;;2.97;;
18042;SDS011;9146;48.074;11.968;2023-05-10T07:42:56;3.17;;;2.80;;
18042;SDS011;9146;48.074;11.968;2023-05-10T07:45:23;3.07;;;2.77;;
18042;SDS011;9146;48.074;11.968;2023-05-10T07:47:51;3.00;;;2.70;;
18042;SDS011;9146;48.074;11.968;2023-05-10T07:50:18;2.70;;;2.50;;
18042;SDS011;9146;48.074;11.968;2023-05-10T07:52:46;2.60;;;2.40;;
18042;SDS011;9146;48.074;11.968;2023-05-10T07:55:13;2.37;;;2.17;;
18042;SDS011;9146;48.074;11.968;2023-05-10T07:57:41;2.70;;;2.50;;
18042;SDS011;9146;48.074;11.968;2023-05-10T08:00:09;2.00;;;1.90;;
18042;SDS011;9146;48.074;11.968;2023-05-10T08:02:39;1.70;;;1.60;;
18042;SDS011;9146;48.074;11.968;2023-05-10T08:05:08;2.90;;;2.00;;
18042;SDS011;9146;48.074;11.968;2023-05-10T08:07:35;2.13;;;2.03;;
18042;SDS011;9146;48.074;11.968;2023-05-10T08:10:02;2.37;;;2.20;;
18042;SDS011;9146;48.074;11.968;2023-05-10T08:12:29;2.73;;;2.30;;
18042;SDS011;9146;48.074;11.968;2023-05-10T08:14:56;2.37;;;2.17;;
18042;SDS011;9146;48.074;11.968;2023-05-10T08:17:23;2.20;;;2.10;;
18042;SDS011;9146;48.074;11.968;2023-05-10T08:19:50;2.33;;;2.20;;
18042;SDS011;9146;48.074;11.968;2023-05-10T08:22:18;3.10;;;2.80;;
18042;SDS011;9146;48.074;11.968;2023-05-10T08:24:45;3.00;;;2.33;;
18042;SDS011;9146;48.074;11.968;2023-05-10T08:27:12;2.90;;;2.70;;
18042;SDS011;9146;48.074;11.968;2023-05-10T08:29:39;2.60;;;2.40;;
18042;SDS011;9146;48.074;11.968;2023-05-10T08:32:06;2.67;;;2.47;;
18042;SDS011;9146;48.074;11.968;2023-05-10T08:34:33;2.40;;;2.20;;
18042;SDS011;9146;48.074;11.968;2023-05-10T08:36:59;2.43;;;2.23;;
18042;SDS011;9146;48.074;11.968;2023-05-10T08:39:28;2.00;;;1.90;;
18042;SDS011;9146;48.074;11.968;2023-05-10T08:41:54;2.17;;;2.00;;
18042;SDS011;9146;48.074;11.968;2023-05-10T08:44:25;2.10;;;2.00;;
18042;SDS011;9146;48.074;11.968;2023-05-10T08:46:53;2.00;;;1.80;;
18042;SDS011;9146;48.074;11.968;2023-05-10T08:49:20;1.63;;;1.53;;
18042;SDS011;9146;48.074;11.968;2023-05-10T08:51:50;1.80;;;1.70;;
18042;SDS011;9146;48.074;11.968;2023-05-10T08:54:21;2.50;;;2.30;;
18042;SDS011;9146;48.074;11.968;2023-05-10T08:56:50;2.20;;;2.10;;
18042;SDS011;9146;48.074;11.968;2023-05-10T08:59:18;2.00;;;1.90;;
18042;SDS011;9146;48.074;11.968;2023-05-10T09:01:45;2.27;;;2.17;;
18042;SDS011;9146;48.074;11.968;2023-05-10T09:04:14;2.77;;;2.57;;
18042;SDS011;9146;48.074;11.968;2023-05-10T09:06:41;2.30;;;2.20;;
18042;SDS011;9146;48.074;11.968;2023-05-10T09:09:08;1.97;;;1.87;;
18042;SDS011;9146;48.074;11.968;2023-05-10T09:11:36;1.93;;;1.83;;
18042;SDS011;9146;48.074;11.968;2023-05-10T09:14:04;2.93;;;1.87;;
18042;SDS011;9146;48.074;11.968;2023-05-10T09:16:31;1.63;;;1.60;;
18042;SDS011;9146;48.074;11.968;2023-05-10T09:18:58;2.40;;;1.77;;
18042;SDS011;9146;48.074;11.968;2023-05-10T09:21:25;1.70;;;1.60;;
18042;SDS011;9146;48.074;11.968;2023-05-10T09:23:52;1.93;;;1.83;;
18042;SDS011;9146;48.074;11.968;2023-05-10T09:26:21;2.43;;;2.10;;
18042;SDS011;9146;48.074;11.968;2023-05-10T09:28:52;1.83;;;1.73;;
18042;SDS011;9146;48.074;11.968;2023-05-10T09:31:22;3.90;;;1.20;;
18042;SDS011;9146;48.074;11.968;2023-05-10T09:33:50;1.93;;;1.83;;
18042;SDS011;9146;48.074;11.968;2023-05-10T09:36:17;1.63;;;1.40;;
18042;SDS011;9146;48.074;11.968;2023-05-10T09:38:45;2.20;;;2.00;;
18042;SDS011;9146;48.074;11.968;2023-05-10T09:41:16;9.20;;;4.63;;
18042;SDS011;9146;48.074;11.968;2023-05-10T09:43:45;2.70;;;1.63;;
18042;SDS011;9146;48.074;11.968;2023-05-10T09:46:12;1.93;;;1.83;;
18042;SDS011;9146;48.074;11.968;2023-05-10T09:48:42;1.60;;;1.50;;
18042;SDS011;9146;48.074;11.968;2023-05-10T09:51:18;2.60;;;1.20;;
18042;SDS011;9146;48.074;11.968;2023-05-10T09:53:46;5.83;;;1.10;;
18042;SDS011;9146;48.074;11.968;2023-05-10T09:59:03;1.10;;;1.00;;
18042;SDS011;9146;48.074;11.968;2023-05-10T10:01:31;1.17;;;0.80;;
18042;SDS011;9146;48.074;11.968;2023-05-10T10:03:59;1.53;;;1.10;;
18042;SDS011;9146;48.074;11.968;2023-05-10T10:06:29;2.83;;;0.90;;
18042;SDS011;9146;48.074;11.968;2023-05-10T10:09:00;1.00;;;1.00;;
18042;SDS011;9146;48.074;11.968;2023-05-10T10:11:27;1.23;;;1.13;;
18042;SDS011;9146;48.074;11.968;2023-05-10T10:13:55;2.30;;;1.17;;
18042;SDS011;9146;48.074;11.968;2023-05-10T10:16:22;1.23;;;1.23;;
18042;SDS011;9146;48.074;11.968;2023-05-10T10:18:50;1.20;;;1.10;;
18042;SDS011;9146;48.074;11.968;2023-05-10T10:21:18;1.57;;;1.33;;
18042;SDS011;9146;48.074;11.968;2023-05-10T10:23:45;2.57;;;1.73;;
18042;SDS011;9146;48.074;11.968;2023-05-10T10:26:12;1.00;;;1.00;;
18042;SDS011;9146;48.074;11.968;2023-05-10T10:28:44;1.10;;;1.10;;
18042;SDS011;9146;48.074;11.968;2023-05-10T10:31:17;3.93;;;1.00;;
18042;SDS011;9146;48.074;11.968;2023-05-10T10:34:03;1.10;;;1.10;;
18042;SDS011;9146;48.074;11.968;2023-05-10T10:36:34;1.10;;;1.00;;
18042;SDS011;9146;48.074;11.968;2023-05-10T10:39:08;0.90;;;0.90;;
18042;SDS011;9146;48.074;11.968;2023-05-10T10:41:37;1.87;;;1.13;;
18042;SDS011;9146;48.074;11.968;2023-05-10T10:44:32;1.50;;;1.40;;
18042;SDS011;9146;48.074;11.968;2023-05-10T10:47:08;1.20;;;1.20;;
18042;SDS011;9146;48.074;11.968;2023-05-10T10:50:02;1.30;;;1.20;;
18042;SDS011;9146;48.074;11.968;2023-05-10T10:52:32;1.43;;;1.33;;
18042;SDS011;9146;48.074;11.968;2023-05-10T10:55:01;2.47;;;2.17;;
18042;SDS011;9146;48.074;11.968;2023-05-10T10:57:33;3.80;;;1.80;;
18042;SDS011;9146;48.074;11.968;2023-05-10T11:00:19;2.07;;;1.97;;
18042;SDS011;9146;48.074;11.968;2023-05-10T11:02:48;2.17;;;2.07;;
18042;SDS011;9146;48.074;11.968;2023-05-10T11:08:14;1.97;;;1.87;;
18042;SDS011;9146;48.074;11.968;2023-05-10T11:10:50;1.93;;;1.80;;
18042;SDS011;9146;48.074;11.968;2023-05-10T11:13:28;1.73;;;1.63;;
18042;SDS011;9146;48.074;11.968;2023-05-10T11:15:58;1.67;;;1.57;;
18042;SDS011;9146;48.074;11.968;2023-05-10T11:18:38;1.90;;;1.80;;
18042;SDS011;9146;48.074;11.968;2023-05-10T11:21:07;1.90;;;1.73;;
18042;SDS011;9146;48.074;11.968;2023-05-10T11:23:49;1.33;;;1.30;;
18042;SDS011;9146;48.074;11.968;2023-05-10T11:26:17;2.00;;;1.83;;
18042;SDS011;9146;48.074;11.968;2023-05-10T11:28:48;2.20;;;2.07;;
18042;SDS011;9146;48.074;11.968;2023-05-10T11:31:16;2.27;;;2.07;;
18042;SDS011;9146;48.074;11.968;2023-05-10T11:33:47;1.70;;;1.60;;
18042;SDS011;9146;48.074;11.968;2023-05-10T11:36:17;1.60;;;1.50;;
18042;SDS011;9146;48.074;11.968;2023-05-10T11:38:46;2.30;;;1.53;;
18042;SDS011;9146;48.074;11.968;2023-05-10T11:41:15;1.90;;;1.80;;
18042;SDS011;9146;48.074;11.968;2023-05-10T11:43:44;1.80;;;1.70;;
18042;SDS011;9146;48.074;11.968;2023-05-10T11:46:13;1.90;;;1.80;;
18042;SDS011;9146;48.074;11.968;2023-05-10T11:48:41;3.33;;;1.90;;
18042;SDS011;9146;48.074;11.968;2023-05-10T11:51:09;2.10;;;1.90;;
18042;SDS011;9146;48.074;11.968;2023-05-10T11:53:37;9.27;;;1.80;;
18042;SDS011;9146;48.074;11.968;2023-05-10T11:56:04;2.50;;;1.77;;
18042;SDS011;9146;48.074;11.968;2023-05-10T11:58:33;2.60;;;2.00;;
18042;SDS011;9146;48.074;11.968;2023-05-10T12:01:01;2.87;;;2.17;;
18042;SDS011;9146;48.074;11.968;2023-05-10T12:03:30;1.90;;;1.80;;
18042;SDS011;9146;48.074;11.968;2023-05-10T12:05:57;2.20;;;2.10;;
18042;SDS011;9146;48.074;11.968;2023-05-10T12:08:25;2.47;;;2.33;;
18042;SDS011;9146;48.074;11.968;2023-05-10T12:10:53;2.40;;;2.10;;
18042;SDS011;9146;48.074;11.968;2023-05-10T12:13:31;2.70;;;2.50;;
18042;SDS011;9146;48.074;11.968;2023-05-10T12:15:59;2.97;;;2.47;;
18042;SDS011;9146;48.074;11.968;2023-05-10T12:18:39;2.13;;;2.00;;
18042;SDS011;9146;48.074;11.968;2023-05-10T12:21:06;2.70;;;2.50;;
18042;SDS011;9146;48.074;11.968;2023-05-10T12:23:33;1.90;;;1.80;;
18042;SDS011;9146;48.074;11.968;2023-05-10T12:26:01;2.70;;;2.50;;
18042;SDS011;9146;48.074;11.968;2023-05-10T12:28:29;2.43;;;2.23;;
18042;SDS011;9146;48.074;11.968;2023-05-10T12:30:57;2.10;;;1.63;;
18042;SDS011;9146;48.074;11.968;2023-05-10T12:33:26;2.97;;;1.83;;
18042;SDS011;9146;48.074;11.968;2023-05-10T12:35:54;0.97;;;0.93;;
18042;SDS011;9146;48.074;11.968;2023-05-10T12:38:24;1.10;;;1.00;;
18042;SDS011;9146;48.074;11.968;2023-05-10T12:40:54;1.50;;;1.40;;
18042;SDS011;9146;48.074;11.968;2023-05-10T12:43:21;1.93;;;1.27;;
18042;SDS011;9146;48.074;11.968;2023-05-10T12:45:48;1.40;;;1.30;;
18042;SDS011;9146;48.074;11.968;2023-05-10T12:48:17;1.43;;;1.23;;
18042;SDS011;9146;48.074;11.968;2023-05-10T12:50:45;2.40;;;1.47;;
18042;SDS011;9146;48.074;11.968;2023-05-10T12:53:13;1.20;;;1.10;;
18042;SDS011;9146;48.074;11.968;2023-05-10T12:55:40;2.67;;;1.33;;
18042;SDS011;9146;48.074;11.968;2023-05-10T12:58:07;3.27;;;1.50;;
18042;SDS011;9146;48.074;11.968;2023-05-10T13:00:34;2.90;;;1.90;;
18042;SDS011;9146;48.074;11.968;2023-05-10T13:03:03;1.33;;;1.33;;
18042;SDS011;9146;48.074;11.968;2023-05-10T13:05:31;3.17;;;1.30;;
18042;SDS011;9146;48.074;11.968;2023-05-10T13:07:58;1.47;;;1.37;;
18042;SDS011;9146;48.074;11.968;2023-05-10T13:10:25;2.27;;;1.67;;
18042;SDS011;9146;48.074;11.968;2023-05-10T13:12:52;1.57;;;1.47;;
18042;SDS011;9146;48.074;11.968;2023-05-10T13:15:20;1.70;;;1.60;;
18042;SDS011;9146;48.074;11.968;2023-05-10T13:17:47;3.33;;;1.77;;
18042;SDS011;9146;48.074;11.968;2023-05-10T13:20:13;2.40;;;2.20;;
18042;SDS011;9146;48.074;11.968;2023-05-10T13:22:42;2.73;;;2.10;;
18042;SDS011;9146;48.074;11.968;2023-05-10T13:25:09;2.00;;;1.90;;
18042;SDS011;9146;48.074;11.968;2023-05-10T13:27:37;2.43;;;2.23;;
18042;SDS011;9146;48.074;11.968;2023-05-10T13:30:04;2.13;;;2.00;;
18042;SDS011;9146;48.074;11.968;2023-05-10T13:32:31;3.93;;;2.10;;
18042;SDS011;9146;48.074;11.968;2023-05-10T13:34:59;2.20;;;2.00;;
18042;SDS011;9146;48.074;11.968;2023-05-10T13:37:28;2.40;;;2.07;;
18042;SDS011;9146;48.074;11.968;2023-05-10T13:39:56;3.70;;;2.60;;
18042;SDS011;9146;48.074;11.968;2023-05-10T13:42:23;2.87;;;2.63;;
18042;SDS011;9146;48.074;11.968;2023-05-10T13:44:50;2.87;;;2.43;;
18042;SDS011;9146;48.074;11.968;2023-05-10T13:47:17;2.60;;;2.40;;
18042;SDS011;9146;48.074;11.968;2023-05-10T13:49:46;2.60;;;2.50;;
18042;SDS011;9146;48.074;11.968;2023-05-10T13:52:13;2.73;;;2.53;;
18042;SDS011;9146;48.074;11.968;2023-05-10T13:54:40;2.50;;;2.30;;
18042;SDS011;9146;48.074;11.968;2023-05-10T13:57:08;3.60;;;2.50;;
18042;SDS011;9146;48.074;11.968;2023-05-10T13:59:37;3.50;;;2.60;;
18042;SDS011;9146;48.074;11.968;2023-05-10T14:02:04;2.80;;;2.60;;
18042;SDS011;9146;48.074;11.968;2023-05-10T14:04:32;2.40;;;2.20;;
18042;SDS011;9146;48.074;11.968;2023-05-10T14:07:00;2.43;;;2.20;;
18042;SDS011;9146;48.074;11.968;2023-05-10T14:09:27;2.10;;;2.00;;
18042;SDS011;9146;48.074;11.968;2023-05-10T14:11:54;2.30;;;2.20;;
18042;SDS011;9146;48.074;11.968;2023-05-10T14:14:22;2.63;;;2.37;;
18042;SDS011;9146;48.074;11.968;2023-05-10T14:16:49;2.93;;;1.90;;
18042;SDS011;9146;48.074;11.968;2023-05-10T14:19:16;2.57;;;2.17;;
18042;SDS011;9146;48.074;11.968;2023-05-10T14:21:44;2.00;;;1.90;;
18042;SDS011;9146;48.074;11.968;2023-05-10T14:24:11;1.93;;;1.83;;
18042;SDS011;9146;48.074;11.968;2023-05-10T14:26:38;2.10;;;2.00;;
18042;SDS011;9146;48.074;11.968;2023-05-10T14:29:04;2.43;;;2.23;;
18042;SDS011;9146;48.074;11.968;2023-05-10T14:31:33;3.30;;;2.20;;
18042;SDS011;9146;48.074;11.968;2023-05-10T14:34:00;2.73;;;2.50;;
18042;SDS011;9146;48.074;11.968;2023-05-10T14:36:27;3.53;;;2.47;;
18042;SDS011;9146;48.074;11.968;2023-05-10T14:38:55;2.13;;;1.97;;
18042;SDS011;9146;48.074;11.968;2023-05-10T14:41:22;2.70;;;1.93;;
18042;SDS011;9146;48.074;11.968;2023-05-10T14:43:49;2.30;;;1.80;;
18042;SDS011;9146;48.074;11.968;2023-05-10T14:46:16;1.60;;;1.50;;
18042;SDS011;9146;48.074;11.968;2023-05-10T14:48:45;1.80;;;1.70;;
18042;SDS011;9146;48.074;11.968;2023-05-10T14:51:12;3.40;;;1.80;;
18042;SDS011;9146;48.074;11.968;2023-05-10T14:53:39;2.20;;;1.73;;
18042;SDS011;9146;48.074;11.968;2023-05-10T14:56:06;2.13;;;2.03;;
18042;SDS011;9146;48.074;11.968;2023-05-10T14:58:33;1.60;;;1.50;;
18042;SDS011;9146;48.074;11.968;2023-05-10T15:01:00;5.43;;;2.10;;
18042;SDS011;9146;48.074;11.968;2023-05-10T15:03:27;1.97;;;1.87;;
18042;SDS011;9146;48.074;11.968;2023-05-10T15:05:55;1.50;;;1.40;;
18042;SDS011;9146;48.074;11.968;2023-05-10T15:08:24;1.90;;;1.50;;
18042;SDS011;9146;48.074;11.968;2023-05-10T15:10:50;2.00;;;1.63;;